createdAt,value
2022-09-07T00:01:47.130Z,97222.45
2022-09-07T00:04:16.284Z,97227.77
2022-09-07T00:06:45.228Z,97215.48
2022-09-07T00:09:15.666Z,97209.89
2022-09-07T00:11:47.674Z,97199.67
2022-09-07T00:14:14.567Z,97195.02
2022-09-07T00:16:44.345Z,97196.98
2022-09-07T00:19:14.343Z,97201.83
2022-09-07T00:21:41.369Z,97203.64
2022-09-07T00:24:08.801Z,97200.52
2022-09-07T00:26:37.690Z,97196.48
2022-09-07T00:29:10.679Z,97197.82
2022-09-07T00:31:38.099Z,97200.63
2022-09-07T00:34:06.100Z,97201.70
2022-09-07T00:36:33.248Z,97202.91
2022-09-07T00:39:01.286Z,97200.76
2022-09-07T00:41:29.352Z,97194.13
2022-09-07T00:43:58.795Z,97192.10
2022-09-07T00:46:28.751Z,97186.66
2022-09-07T00:48:58.689Z,97179.70
2022-09-07T00:51:29.198Z,97180.29
2022-09-07T00:54:02.266Z,97179.07
2022-09-07T00:56:34.837Z,97181.66
2022-09-07T00:59:05.213Z,97183.16
2022-09-07T01:01:33.824Z,97182.39
2022-09-07T01:04:03.872Z,97177.02
2022-09-07T01:06:37.628Z,97172.82
2022-09-07T01:09:35.064Z,97171.05
2022-09-07T01:12:18.823Z,97174.93
2022-09-07T01:14:50.225Z,97178.11
2022-09-07T01:17:27.862Z,97187.34
2022-09-07T01:20:09.960Z,97190.91
2022-09-07T01:22:36.951Z,97185.65
2022-09-07T01:25:16.473Z,97180.71
2022-09-07T01:28:00.436Z,97181.12
2022-09-07T01:30:27.420Z,97178.75
2022-09-07T01:33:05.251Z,97182.86
2022-09-07T01:36:05.662Z,97183.09
2022-09-07T01:38:39.122Z,97179.63
2022-09-07T01:41:23.739Z,97172.46
2022-09-07T01:44:06.657Z,97171.45
2022-09-07T01:46:51.737Z,97170.14
2022-09-07T01:49:36.051Z,97172.14
2022-09-07T01:52:10.014Z,97162.90
2022-09-07T01:54:52.370Z,97162.88
2022-09-07T01:57:27.628Z,97167.02
2022-09-07T02:00:08.016Z,97166.78
2022-09-07T02:02:42.608Z,97169.73
2022-09-07T02:05:38.728Z,97165.55
2022-09-07T02:08:06.170Z,97167.71
2022-09-07T02:10:39.577Z,97160.75
2022-09-07T02:13:17.080Z,97162.81
2022-09-07T02:16:03.394Z,97161.48
2022-09-07T02:18:39.119Z,97158.15
2022-09-07T02:24:05.971Z,97161.66
2022-09-07T02:26:45.666Z,97164.39
2022-09-07T02:29:18.882Z,97161.05
2022-09-07T02:31:46.912Z,97165.70
2022-09-07T02:34:18.387Z,97169.70
2022-09-07T02:36:47.311Z,97178.17
2022-09-07T02:39:16.936Z,97195.08
2022-09-07T02:41:45.955Z,97227.46
2022-09-07T02:44:19.119Z,97279.25
2022-09-07T02:46:51.901Z,97278.88
2022-09-07T02:49:22.270Z,97245.27
2022-09-07T02:52:20.038Z,97237.31
2022-09-07T02:55:04.514Z,97264.80
2022-09-07T02:57:50.907Z,97247.81
2022-09-07T03:00:25.855Z,97227.00
2022-09-07T03:03:07.525Z,97218.02
2022-09-07T03:05:37.618Z,97213.40
2022-09-07T03:08:13.274Z,97195.88
2022-09-07T03:10:41.023Z,97192.99
2022-09-07T03:13:26.481Z,97198.04
2022-09-07T03:15:58.078Z,97199.09
2022-09-07T03:18:26.185Z,97196.56
2022-09-07T03:20:56.297Z,97187.74
2022-09-07T03:23:23.910Z,97181.63
2022-09-07T03:25:53.084Z,97184.73
2022-09-07T03:28:28.175Z,97183.52
2022-09-07T03:31:04.072Z,97186.91
2022-09-07T03:33:33.960Z,97192.61
2022-09-07T03:36:02.600Z,97194.23
2022-09-07T03:38:44.758Z,97191.56
2022-09-07T03:41:16.977Z,97189.00
2022-09-07T03:43:54.759Z,97183.21
2022-09-07T03:46:21.985Z,97181.42
2022-09-07T03:49:17.409Z,97186.18
2022-09-07T03:51:47.976Z,97189.15
2022-09-07T03:54:14.736Z,97185.85
2022-09-07T03:56:44.217Z,97183.89
2022-09-07T03:59:13.845Z,97181.27
2022-09-07T04:01:45.596Z,97180.64
2022-09-07T04:04:12.648Z,97190.11
2022-09-07T04:06:42.781Z,97187.16
2022-09-07T04:09:21.456Z,97187.55
2022-09-07T04:11:48.412Z,97196.92
2022-09-07T04:14:15.753Z,97196.73
2022-09-07T04:16:44.942Z,97194.73
2022-09-07T04:19:11.945Z,97190.45
2022-09-07T04:21:38.774Z,97196.63
2022-09-07T04:24:09.751Z,97201.66
2022-09-07T04:26:38.910Z,97209.09
2022-09-07T04:29:06.410Z,97215.75
2022-09-07T04:31:35.881Z,97223.20
2022-09-07T04:34:03.527Z,97233.92
2022-09-07T04:36:30.677Z,97232.92
2022-09-07T04:38:59.253Z,97231.89
2022-09-07T04:41:34.395Z,97230.83
2022-09-07T04:44:04.561Z,97235.42
2022-09-07T04:46:35.351Z,97238.17
2022-09-07T04:49:05.811Z,97234.01
2022-09-07T04:51:34.347Z,97233.71
2022-09-07T04:54:02.337Z,97232.86
2022-09-07T04:56:29.820Z,97233.98
2022-09-07T04:58:56.753Z,97237.17
2022-09-07T05:01:25.741Z,97239.94
2022-09-07T05:03:52.885Z,97238.98
2022-09-07T05:06:20.874Z,97234.05
2022-09-07T05:08:53.691Z,97237.09
2022-09-07T05:11:36.960Z,97239.75
2022-09-07T05:14:07.842Z,97230.37
2022-09-07T05:16:35.229Z,97229.39
2022-09-07T05:19:04.462Z,97232.19
2022-09-07T05:21:33.900Z,97233.20
2022-09-07T05:24:01.295Z,97232.87
2022-09-07T05:26:29.327Z,97229.05
2022-09-07T05:31:42.981Z,97226.44
2022-09-07T05:34:31.890Z,97230.64
2022-09-07T05:36:59.932Z,97225.33
2022-09-07T05:39:26.999Z,97226.45
2022-09-07T05:41:54.579Z,97224.33
2022-09-07T05:47:08.462Z,97224.86
2022-09-07T05:49:35.433Z,97228.19
2022-09-07T05:52:02.446Z,97237.47
2022-09-07T05:54:29.382Z,97238.09
2022-09-07T05:56:56.211Z,97239.42
2022-09-07T05:59:23.029Z,97237.06
2022-09-07T06:01:50.321Z,97237.15
2022-09-07T06:04:17.103Z,97240.68
2022-09-07T06:06:54.593Z,97246.27
2022-09-07T06:09:31.044Z,97255.73
2022-09-07T06:11:57.785Z,97258.71
2022-09-07T06:14:24.657Z,97259.79
2022-09-07T06:16:51.502Z,97275.98
2022-09-07T06:19:18.448Z,97282.42
2022-09-07T06:21:45.194Z,97276.91
2022-09-07T06:24:11.997Z,97272.88
2022-09-07T06:26:38.836Z,97270.95
2022-09-07T06:29:05.576Z,97272.58
2022-09-07T06:31:32.700Z,97279.09
2022-09-07T06:34:00.029Z,97279.27
2022-09-07T06:36:27.552Z,97285.14
2022-09-07T06:38:55.287Z,97289.16
2022-09-07T06:44:18.495Z,97270.98
2022-09-07T06:47:12.771Z,97263.41
2022-09-07T06:49:39.602Z,97257.02
2022-09-07T06:52:06.457Z,97244.17
2022-09-07T06:57:20.153Z,97246.30
2022-09-07T06:59:47.084Z,97250.27
2022-09-07T07:02:16.400Z,97244.55
2022-09-07T07:04:43.159Z,97245.37
2022-09-07T07:07:11.764Z,97256.64
2022-09-07T07:09:38.636Z,97262.44
2022-09-07T07:12:05.711Z,97272.55
2022-09-07T07:14:35.520Z,97286.98
2022-09-07T07:17:03.393Z,97290.88
2022-09-07T07:19:30.277Z,97294.39
2022-09-07T07:24:43.660Z,97301.57
2022-09-07T07:27:10.545Z,97301.84
2022-09-07T07:29:37.370Z,97295.81
2022-09-07T07:32:04.793Z,97299.84
2022-09-07T07:34:31.600Z,97295.73
2022-09-07T07:36:58.368Z,97294.65
2022-09-07T07:42:11.985Z,97285.30
2022-09-07T07:44:39.054Z,97275.06
2022-09-07T07:47:06.956Z,97275.11
2022-09-07T07:49:34.847Z,97283.85
2022-09-07T08:08:07.772Z,97285.22
2022-09-07T08:10:41.419Z,97282.88
2022-09-07T08:13:08.215Z,97278.60
2022-09-07T08:15:44.644Z,97279.43
2022-09-07T08:18:18.814Z,97275.95
2022-09-07T08:20:45.637Z,97276.73
2022-09-07T08:23:12.919Z,97282.69
2022-09-07T08:25:52.482Z,97286.36
2022-09-07T08:28:20.763Z,97295.80
2022-09-07T08:30:47.590Z,97296.39
2022-09-07T08:33:14.869Z,97300.81
2022-09-07T08:35:41.720Z,97300.34
2022-09-07T08:38:08.683Z,97302.42
2022-09-07T08:40:37.757Z,97303.41
2022-09-07T08:43:25.759Z,97307.88
2022-09-07T08:45:59.368Z,97305.19
2022-09-07T08:48:33.888Z,97302.55
2022-09-07T08:51:10.826Z,97299.82
2022-09-07T08:53:45.148Z,97302.99
2022-09-07T08:56:33.776Z,97303.73
2022-09-07T08:59:13.224Z,97304.55
2022-09-07T09:01:43.076Z,97302.48
2022-09-07T09:04:22.427Z,97302.58
2022-09-07T09:06:59.967Z,97297.73
2022-09-07T09:09:26.657Z,97289.61
2022-09-07T09:12:17.240Z,97291.40
2022-09-07T09:15:07.508Z,97279.19
2022-09-07T09:17:41.313Z,97278.23
2022-09-07T09:20:20.401Z,97274.71
2022-09-07T09:22:47.689Z,97276.98
2022-09-07T09:25:28.651Z,97279.66
2022-09-07T09:27:55.429Z,97277.70
2022-09-07T09:30:24.045Z,97267.15
2022-09-07T09:33:10.884Z,97276.31
2022-09-07T09:35:38.773Z,97275.08
2022-09-07T09:38:35.408Z,97263.95
2022-09-07T09:41:08.292Z,97266.77
2022-09-07T09:43:54.776Z,97266.02
2022-09-07T09:46:33.537Z,97271.95
2022-09-07T09:49:01.249Z,97273.52
2022-09-07T09:54:29.351Z,97274.08
2022-09-07T09:56:56.206Z,97273.91
2022-09-07T10:05:37.990Z,97264.36
2022-09-07T10:08:16.337Z,97258.87
2022-09-07T10:11:13.693Z,97257.30
2022-09-07T10:13:54.265Z,97264.89
2022-09-07T10:16:38.874Z,97256.41
2022-09-07T10:19:34.306Z,97248.41
2022-09-07T10:22:20.175Z,97248.33
2022-09-07T10:24:51.460Z,97247.73
2022-09-07T10:27:31.193Z,97245.95
2022-09-07T10:29:58.663Z,97242.11
2022-09-07T10:32:43.789Z,97244.33
2022-09-07T10:35:17.282Z,97248.80
2022-09-07T10:37:56.644Z,97250.95
2022-09-07T10:40:43.690Z,97253.66
2022-09-07T10:43:29.093Z,97253.77
2022-09-07T10:45:59.016Z,97249.41
2022-09-07T10:48:39.004Z,97246.49
2022-09-07T10:51:15.614Z,97242.36
2022-09-07T10:56:55.544Z,97239.14
2022-09-07T11:03:25.559Z,97239.91
2022-09-07T11:06:19.755Z,97231.00
2022-09-07T11:09:22.158Z,97237.05
2022-09-07T11:12:03.039Z,97224.48
2022-09-07T11:14:38.767Z,97212.41
2022-09-07T11:17:42.674Z,97207.77
2022-09-07T11:20:19.688Z,97208.21
2022-09-07T11:22:52.792Z,97201.58
2022-09-07T11:26:01.871Z,97195.55
2022-09-07T11:28:46.291Z,97193.72
2022-09-07T11:31:32.107Z,97191.98
2022-09-07T11:34:25.423Z,97193.27
2022-09-07T11:37:12.563Z,97193.57
2022-09-07T11:40:06.474Z,97182.98
2022-09-07T11:42:55.319Z,97181.49
2022-09-07T11:45:36.330Z,97182.51
2022-09-07T11:48:21.714Z,97181.02
2022-09-07T11:51:04.547Z,97177.50
2022-09-07T11:53:45.151Z,97173.23
2022-09-07T11:56:20.664Z,97171.56
2022-09-07T11:58:53.371Z,97172.61
2022-09-07T12:01:39.725Z,97173.98
2022-09-07T12:04:28.818Z,97163.23
2022-09-07T12:08:03.167Z,97156.27
2022-09-07T12:10:37.260Z,97158.02
2022-09-07T12:13:30.495Z,97154.31
2022-09-07T12:19:04.395Z,97145.20
2022-09-07T12:21:56.050Z,97149.67
2022-09-07T12:24:39.324Z,97148.45
2022-09-07T12:27:21.136Z,97138.59
2022-09-07T12:29:49.031Z,97141.86
2022-09-07T12:32:54.894Z,97142.24
2022-09-07T12:35:31.619Z,97137.30
2022-09-07T12:38:02.118Z,97135.27
2022-09-07T12:40:29.212Z,97133.54
2022-09-07T12:43:31.160Z,97138.85
2022-09-07T12:46:00.207Z,97135.15
2022-09-07T12:48:46.139Z,97130.63
2022-09-07T12:54:26.804Z,97125.27
2022-09-07T13:00:11.268Z,97125.91
2022-09-07T13:09:31.678Z,97122.20
2022-09-07T13:12:00.657Z,97121.63
2022-09-07T13:14:29.074Z,97115.02
2022-09-07T13:17:38.315Z,97116.92
2022-09-07T13:20:20.259Z,97119.54
2022-09-07T13:22:47.156Z,97119.85
2022-09-07T13:25:20.097Z,97121.60
2022-09-07T13:27:54.029Z,97120.50
2022-09-07T13:30:32.684Z,97118.11
2022-09-07T13:33:24.577Z,97120.08
2022-09-07T13:35:59.649Z,97125.21
2022-09-07T13:38:29.195Z,97124.38
2022-09-07T13:41:07.466Z,97119.58
2022-09-07T13:43:34.527Z,97116.67
2022-09-07T13:46:16.416Z,97110.99
2022-09-07T13:48:50.884Z,97111.76
2022-09-07T13:51:45.041Z,97111.51
2022-09-07T13:54:20.621Z,97096.13
2022-09-07T13:57:09.122Z,97094.70
2022-09-07T13:59:36.175Z,97093.85
2022-09-07T14:02:03.142Z,97091.36
2022-09-07T14:04:41.825Z,97096.23
2022-09-07T14:07:19.192Z,97098.04
2022-09-07T14:09:48.391Z,97095.86
2022-09-07T14:12:29.925Z,97097.45
2022-09-07T14:15:20.676Z,97100.52
2022-09-07T14:17:49.084Z,97104.66
2022-09-07T14:20:17.833Z,97105.88
2022-09-07T14:22:46.701Z,97104.13
2022-09-07T14:25:22.093Z,97105.42
2022-09-07T14:27:49.237Z,97103.80
2022-09-07T14:30:19.630Z,97102.12
2022-09-07T14:32:48.534Z,97109.23
2022-09-07T14:35:24.544Z,97112.63
2022-09-07T14:37:52.163Z,97108.09
2022-09-07T14:40:21.914Z,97112.70
2022-09-07T14:42:50.729Z,97111.33
2022-09-07T14:45:24.198Z,97106.49
2022-09-07T14:47:55.466Z,97105.53
2022-09-07T14:50:41.438Z,97103.09
2022-09-07T14:56:12.710Z,97098.67
2022-09-07T14:58:39.494Z,97097.27
2022-09-07T15:01:42.325Z,97090.52
2022-09-07T15:04:18.591Z,97081.89
2022-09-07T15:07:01.808Z,97084.13
2022-09-07T15:10:32.267Z,97080.66
2022-09-07T15:13:01.371Z,97077.20
2022-09-07T15:15:41.113Z,97078.55
2022-09-07T15:18:45.548Z,97076.83
2022-09-07T15:21:12.376Z,97074.38
2022-09-07T15:23:41.299Z,97071.67
2022-09-07T15:27:01.936Z,97070.46
2022-09-07T15:29:15.731Z,97069.38
2022-09-07T15:31:47.339Z,97066.87
2022-09-07T15:34:26.282Z,97063.80
2022-09-07T15:36:59.790Z,97061.41
2022-09-07T15:39:31.113Z,97061.55
2022-09-07T15:42:00.611Z,97066.55
2022-09-07T15:44:46.575Z,97070.73
2022-09-07T15:50:00.597Z,97077.92
2022-09-07T15:52:28.151Z,97072.16
2022-09-07T15:54:58.964Z,97071.61
2022-09-07T16:00:16.351Z,97073.96
2022-09-07T16:05:33.158Z,97069.48
2022-09-07T16:10:55.810Z,97070.57
2022-09-07T16:13:34.130Z,97070.53
2022-09-07T16:16:07.354Z,97069.98
2022-09-07T16:18:35.084Z,97061.65
2022-09-07T16:23:58.016Z,97067.69
2022-09-07T16:26:39.313Z,97066.55
2022-09-07T16:29:06.275Z,97062.44
2022-09-07T16:31:35.950Z,97063.86
2022-09-07T16:34:03.343Z,97062.27
2022-09-07T16:36:30.666Z,97066.60
2022-09-07T16:38:59.858Z,97064.35
2022-09-07T16:41:31.433Z,97057.14
2022-09-07T16:43:59.064Z,97057.86
2022-09-07T16:46:29.937Z,97054.83
2022-09-07T16:48:56.731Z,97056.17
2022-09-07T16:51:24.642Z,97059.17
2022-09-07T16:53:53.935Z,97065.02
2022-09-07T16:56:25.859Z,97064.98
2022-09-07T16:58:58.027Z,97060.84
2022-09-07T17:01:27.706Z,97062.40
2022-09-07T17:03:54.990Z,97059.95
2022-09-07T17:06:24.332Z,97060.59
2022-09-07T17:08:52.291Z,97062.06
2022-09-07T17:11:22.627Z,97068.46
2022-09-07T17:13:50.943Z,97069.36
2022-09-07T17:16:26.828Z,97074.47
2022-09-07T17:21:44.390Z,97082.31
2022-09-07T17:24:20.773Z,97083.59
2022-09-07T17:26:54.324Z,97082.83
2022-09-07T17:29:21.924Z,97083.81
2022-09-07T17:34:35.833Z,97087.46
2022-09-07T17:37:02.977Z,97086.30
2022-09-07T17:39:30.455Z,97092.60
2022-09-07T17:41:58.452Z,97093.36
2022-09-07T17:44:52.770Z,97089.97
2022-09-07T17:47:30.176Z,97095.45
2022-09-07T17:49:57.091Z,97093.67
2022-09-07T17:52:46.081Z,97094.05
2022-09-07T17:55:13.087Z,97093.90
2022-09-07T17:57:39.842Z,97096.39
2022-09-07T18:00:11.394Z,97106.94
2022-09-07T18:02:38.886Z,97106.58
2022-09-07T18:05:07.100Z,97112.45
2022-09-07T18:07:34.768Z,97116.55
2022-09-07T18:10:02.477Z,97119.91
2022-09-07T18:12:29.306Z,97118.55
2022-09-07T18:14:56.149Z,97121.39
2022-09-07T18:17:22.953Z,97120.70
2022-09-07T18:19:50.636Z,97123.49
2022-09-07T18:22:17.442Z,97126.02
2022-09-07T18:24:44.392Z,97126.84
2022-09-07T18:27:11.384Z,97126.91
2022-09-07T18:29:38.145Z,97132.90
2022-09-07T18:32:08.692Z,97136.31
2022-09-07T18:34:40.648Z,97138.66
2022-09-07T18:37:08.716Z,97137.36
2022-09-07T18:39:36.333Z,97128.48
2022-09-07T18:42:03.282Z,97126.48
2022-09-07T18:47:23.367Z,97127.64
2022-09-07T18:49:55.212Z,97127.84
2022-09-07T18:55:10.180Z,97127.05
2022-09-07T18:57:37.584Z,97127.20
2022-09-07T19:00:09.431Z,97125.59
2022-09-07T19:02:37.383Z,97127.18
2022-09-07T19:07:51.972Z,97122.36
2022-09-07T19:10:24.400Z,97123.35
2022-09-07T19:12:51.282Z,97121.27
2022-09-07T19:15:20.588Z,97125.45
2022-09-07T19:17:47.381Z,97127.02
2022-09-07T19:20:14.262Z,97129.08
2022-09-07T19:22:42.232Z,97127.97
2022-09-07T19:25:09.498Z,97129.33
2022-09-07T19:27:36.352Z,97125.70
2022-09-07T19:30:08.989Z,97117.14
2022-09-07T19:32:35.821Z,97114.23
2022-09-07T19:35:02.788Z,97116.70
2022-09-07T19:37:31.771Z,97116.16
2022-09-07T19:39:58.609Z,97110.48
2022-09-07T19:42:25.790Z,97106.56
2022-09-07T19:44:53.804Z,97110.02
2022-09-07T19:47:21.382Z,97110.95
2022-09-07T19:49:48.152Z,97112.43
2022-09-07T19:52:14.935Z,97114.77
2022-09-07T19:54:41.718Z,97110.81
2022-09-07T19:57:08.418Z,97111.48
2022-09-07T19:59:35.187Z,97107.56
2022-09-07T20:02:01.979Z,97106.29
2022-09-07T20:04:29.283Z,97098.13
2022-09-07T20:06:56.419Z,97101.05
2022-09-07T20:09:24.444Z,97106.81
2022-09-07T20:11:51.162Z,97107.73
2022-09-07T20:14:18.630Z,97109.73
2022-09-07T20:16:45.561Z,97108.05
2022-09-07T20:19:14.120Z,97104.73
2022-09-07T20:21:41.047Z,97103.20
2022-09-07T20:24:09.974Z,97105.79
2022-09-07T20:26:36.825Z,97109.60
2022-09-07T20:29:26.152Z,97106.73
2022-09-07T20:31:53.163Z,97106.05
2022-09-07T20:34:19.999Z,97103.32
2022-09-07T20:36:49.116Z,97104.02
2022-09-07T20:39:16.319Z,97099.98
2022-09-07T20:41:43.866Z,97098.04
2022-09-07T20:44:10.656Z,97108.70
2022-09-07T20:46:37.460Z,97115.23
2022-09-07T20:49:09.340Z,97117.16
2022-09-07T20:51:36.174Z,97117.56
2022-09-07T20:54:03.347Z,97119.08
2022-09-07T20:56:30.730Z,97119.83
2022-09-07T20:58:59.684Z,97122.30
2022-09-07T21:01:28.265Z,97115.94
2022-09-07T21:03:57.381Z,97115.48
2022-09-07T21:06:26.974Z,97123.07
2022-09-07T21:08:54.694Z,97121.52
2022-09-07T21:11:27.031Z,97118.01
2022-09-07T21:14:06.969Z,97115.56
2022-09-07T21:16:35.026Z,97117.23
2022-09-07T21:19:04.293Z,97115.86
2022-09-07T21:21:38.560Z,97116.88
2022-09-07T21:24:14.331Z,97112.31
2022-09-07T21:26:41.304Z,97118.49
2022-09-07T21:29:14.907Z,97121.46
2022-09-07T21:31:41.992Z,97116.27
2022-09-07T21:34:10.082Z,97116.79
2022-09-07T21:37:03.062Z,97121.77
2022-09-07T21:39:30.063Z,97120.66
2022-09-07T21:41:57.073Z,97120.02
2022-09-07T21:44:25.195Z,97116.46
2022-09-07T21:46:51.957Z,97113.34
2022-09-07T21:49:18.681Z,97108.82
2022-09-07T21:51:45.423Z,97104.45
2022-09-07T21:54:12.247Z,97103.14
2022-09-07T21:56:42.106Z,97103.24
2022-09-07T21:59:12.852Z,97105.36
2022-09-07T22:01:40.354Z,97101.02
2022-09-07T22:04:07.143Z,97092.59
2022-09-07T22:06:34.568Z,97090.39
2022-09-07T22:09:02.127Z,97093.34
2022-09-07T22:11:29.701Z,97092.48
2022-09-07T22:14:02.060Z,97092.98
2022-09-07T22:16:29.726Z,97096.81
2022-09-07T22:19:01.175Z,97096.75
2022-09-07T22:21:29.383Z,97097.51
2022-09-07T22:23:58.917Z,97095.84
2022-09-07T22:26:28.286Z,97095.66
2022-09-07T22:28:59.433Z,97092.04
2022-09-07T22:31:31.979Z,97089.02
2022-09-07T22:34:00.918Z,97083.42
2022-09-07T22:36:35.722Z,97082.74
2022-09-07T22:39:06.654Z,97082.27
2022-09-07T22:41:36.507Z,97077.23
2022-09-07T22:44:04.517Z,97078.18
2022-09-07T22:46:35.430Z,97078.60
2022-09-07T22:49:03.287Z,97081.08
2022-09-07T22:51:30.100Z,97085.45
2022-09-07T22:53:57.358Z,97084.94
2022-09-07T22:56:27.798Z,97083.81
2022-09-07T22:58:56.035Z,97080.12
2022-09-07T23:01:25.366Z,97074.22
2022-09-07T23:03:52.924Z,97072.54
2022-09-07T23:06:24.449Z,97071.21
2022-09-07T23:08:52.615Z,97074.08
2022-09-07T23:11:38.634Z,97065.70
2022-09-07T23:14:11.022Z,97070.30
2022-09-07T23:16:38.644Z,97068.72
2022-09-07T23:19:05.538Z,97073.81
2022-09-07T23:21:32.574Z,97070.68
2022-09-07T23:23:59.951Z,97068.07
2022-09-07T23:26:29.081Z,97067.23
2022-09-07T23:28:58.725Z,97067.86
2022-09-07T23:31:27.037Z,97064.11
2022-09-07T23:33:55.616Z,97057.41
2022-09-07T23:36:22.628Z,97060.98
2022-09-07T23:38:53.317Z,97064.52
2022-09-07T23:41:20.549Z,97067.41
2022-09-07T23:43:47.962Z,97064.91
2022-09-07T23:46:15.715Z,97065.23
2022-09-07T23:48:43.985Z,97062.27
2022-09-07T23:51:11.859Z,97069.14
2022-09-07T23:53:38.741Z,97072.02
2022-09-07T23:56:05.693Z,97069.21
2022-09-07T23:58:32.376Z,97063.42
